createdAt,value
2023-04-20T00:02:17.777Z,102363.38
2023-04-20T00:04:45.001Z,102370.31
2023-04-20T00:07:11.989Z,102361.97
2023-04-20T00:09:39.024Z,102353.59
2023-04-20T00:12:06.226Z,102353.84
2023-04-20T00:14:33.020Z,102347.94
2023-04-20T00:17:00.227Z,102350.44
2023-04-20T00:19:28.576Z,102342.09
2023-04-20T00:21:55.410Z,102344.84
2023-04-20T00:24:23.894Z,102332.38
2023-04-20T00:26:50.906Z,102329.03
2023-04-20T00:29:18.009Z,102321.78
2023-04-20T00:31:45.215Z,102324.88
2023-04-20T00:34:12.184Z,102336.78
2023-04-20T00:36:39.079Z,102302.84
2023-04-20T00:39:06.020Z,102309.56
2023-04-20T00:41:33.042Z,102326.78
2023-04-20T00:44:00.381Z,102322.94
2023-04-20T00:46:27.459Z,102321.81
2023-04-20T00:48:55.034Z,102300.38
2023-04-20T00:51:22.927Z,102316.00
2023-04-20T00:53:49.961Z,102306.50
2023-04-20T00:56:17.220Z,102308.97
2023-04-20T00:58:44.347Z,102317.25
2023-04-20T01:01:12.249Z,102308.34
2023-04-20T01:03:42.600Z,102299.28
2023-04-20T01:06:11.222Z,102283.00
2023-04-20T01:08:50.754Z,102316.31
2023-04-20T01:11:18.383Z,102294.94
2023-04-20T01:13:45.650Z,102282.16
2023-04-20T01:16:13.357Z,102277.69
2023-04-20T01:18:44.608Z,102284.09
2023-04-20T01:21:16.963Z,102282.50
2023-04-20T01:23:44.288Z,102296.94
2023-04-20T01:26:13.328Z,102282.31
2023-04-20T01:28:40.366Z,102283.47
2023-04-20T01:31:08.453Z,102288.38
2023-04-20T01:33:35.728Z,102282.88
2023-04-20T01:36:03.025Z,102293.25
2023-04-20T01:38:33.107Z,102291.56
2023-04-20T01:41:00.321Z,102217.66
2023-04-20T01:43:28.011Z,102264.16
2023-04-20T01:45:54.885Z,102266.28
2023-04-20T01:48:22.758Z,102253.28
2023-04-20T01:50:53.341Z,102271.56
2023-04-20T01:53:21.025Z,102285.91
2023-04-20T01:55:48.757Z,102267.97
2023-04-20T01:58:16.075Z,102299.22
2023-04-20T02:00:43.363Z,102286.84
2023-04-20T02:03:10.548Z,102276.94
2023-04-20T02:05:37.708Z,102267.47
2023-04-20T02:08:05.070Z,102288.22
2023-04-20T02:10:32.105Z,102261.41
2023-04-20T02:12:59.003Z,102256.13
2023-04-20T02:15:26.107Z,102252.50
2023-04-20T02:17:53.011Z,102263.81
2023-04-20T02:20:20.607Z,102258.13
2023-04-20T02:22:47.441Z,102240.66
2023-04-20T02:25:14.666Z,102271.19
2023-04-20T02:27:42.376Z,102275.22
2023-04-20T02:30:10.733Z,102267.03
2023-04-20T02:32:37.756Z,102258.16
2023-04-20T02:35:05.035Z,102238.69
2023-04-20T02:37:31.853Z,102240.63
2023-04-20T02:39:58.982Z,102235.56
2023-04-20T02:42:25.937Z,102240.63
2023-04-20T02:44:53.031Z,102240.09
2023-04-20T02:47:20.254Z,102249.59
2023-04-20T02:49:47.724Z,102249.00
2023-04-20T02:52:15.046Z,102247.28
2023-04-20T02:54:42.089Z,102242.75
2023-04-20T02:57:08.990Z,102223.50
2023-04-20T02:59:36.066Z,102218.88
2023-04-20T03:02:03.174Z,102224.22
2023-04-20T03:04:31.271Z,102195.94
2023-04-20T03:06:59.085Z,102224.41
2023-04-20T03:09:26.302Z,102201.53
2023-04-20T03:11:53.274Z,102222.91
2023-04-20T03:14:20.483Z,102222.69
2023-04-20T03:16:47.691Z,102221.19
2023-04-20T03:19:14.511Z,102227.34
2023-04-20T03:21:41.498Z,102222.69
2023-04-20T03:24:08.361Z,102225.97
2023-04-20T03:26:35.176Z,102225.16
2023-04-20T03:29:02.533Z,102206.03
2023-04-20T03:31:29.538Z,102226.38
2023-04-20T03:33:59.165Z,102219.63
2023-04-20T03:36:26.044Z,102222.50
2023-04-20T03:38:52.854Z,102224.72
2023-04-20T03:41:19.791Z,102215.41
2023-04-20T03:43:46.653Z,102217.03
2023-04-20T03:46:13.618Z,102212.56
2023-04-20T03:48:40.879Z,102218.47
2023-04-20T03:51:07.796Z,102225.25
2023-04-20T03:53:35.752Z,102218.91
2023-04-20T03:56:03.447Z,102221.81
2023-04-20T03:58:31.210Z,102234.75
2023-04-20T04:01:03.388Z,102234.94
2023-04-20T04:03:30.598Z,102229.31
2023-04-20T04:05:57.623Z,102216.22
2023-04-20T04:08:24.700Z,102222.47
2023-04-20T04:10:51.773Z,102232.66
2023-04-20T04:13:18.755Z,102208.47
2023-04-20T04:15:45.637Z,102209.53
2023-04-20T04:18:12.544Z,102221.53
2023-04-20T04:20:39.507Z,102222.69
2023-04-20T04:23:07.114Z,102232.63
2023-04-20T04:25:34.693Z,102220.13
2023-04-20T04:28:01.848Z,102218.47
2023-04-20T04:30:29.631Z,102220.31
2023-04-20T04:32:56.842Z,102222.13
2023-04-20T04:35:24.161Z,102199.69
2023-04-20T04:37:52.944Z,102216.53
2023-04-20T04:40:20.222Z,102219.69
2023-04-20T04:42:47.860Z,102216.94
2023-04-20T04:45:15.000Z,102228.97
2023-04-20T04:47:42.726Z,102229.69
2023-04-20T04:50:11.036Z,102231.16
2023-04-20T04:52:38.004Z,102245.50
2023-04-20T04:55:08.515Z,102246.50
2023-04-20T04:57:36.572Z,102246.44
2023-04-20T05:00:07.158Z,102247.97
2023-04-20T05:02:34.362Z,102260.50
2023-04-20T05:05:01.480Z,102254.47
2023-04-20T05:07:28.472Z,102259.34
2023-04-20T05:09:55.375Z,102251.19
2023-04-20T05:12:22.486Z,102235.38
2023-04-20T05:14:49.503Z,102220.38
2023-04-20T05:17:16.498Z,102256.97
2023-04-20T05:19:43.587Z,102244.75
2023-04-20T05:22:10.850Z,102242.97
2023-04-20T05:24:37.703Z,102187.09
2023-04-20T05:27:04.785Z,102255.28
2023-04-20T05:29:32.783Z,102240.94
2023-04-20T05:31:59.919Z,102258.59
2023-04-20T05:34:26.977Z,102250.09
2023-04-20T05:36:55.094Z,102250.59
2023-04-20T05:39:22.267Z,102246.78
2023-04-20T05:41:49.985Z,102262.41
2023-04-20T05:44:17.371Z,102266.00
2023-04-20T05:46:44.335Z,102266.03
2023-04-20T05:49:11.265Z,102255.84
2023-04-20T05:51:38.365Z,102263.66
2023-04-20T05:54:06.021Z,102270.91
2023-04-20T05:56:33.066Z,102268.59
2023-04-20T05:59:00.689Z,102269.25
2023-04-20T06:01:27.918Z,102257.00
2023-04-20T06:03:54.947Z,102257.69
2023-04-20T06:06:21.971Z,102257.19
2023-04-20T06:08:48.899Z,102256.47
2023-04-20T06:11:15.834Z,102257.13
2023-04-20T06:13:42.835Z,102259.53
2023-04-20T06:16:11.290Z,102209.28
2023-04-20T06:18:38.204Z,102258.88
2023-04-20T06:21:05.209Z,102264.53
2023-04-20T06:23:32.336Z,102257.28
2023-04-20T06:25:59.200Z,102255.34
2023-04-20T06:28:26.209Z,102264.03
2023-04-20T06:30:53.056Z,102264.50
2023-04-20T06:33:20.040Z,102255.47
2023-04-20T06:35:46.940Z,102259.34
2023-04-20T06:38:14.337Z,102259.19
2023-04-20T06:40:41.148Z,102265.75
2023-04-20T06:43:08.297Z,102267.03
2023-04-20T06:45:35.168Z,102267.94
2023-04-20T06:48:02.544Z,102251.53
2023-04-20T06:50:29.753Z,102267.59
2023-04-20T06:52:56.851Z,102266.28
2023-04-20T06:55:23.908Z,102267.03
2023-04-20T06:57:53.193Z,102261.03
2023-04-20T07:00:20.433Z,102254.66
2023-04-20T07:02:51.452Z,102264.97
2023-04-20T07:05:19.067Z,102271.28
2023-04-20T07:07:46.407Z,102260.38
2023-04-20T07:10:15.464Z,102267.59
2023-04-20T07:12:43.814Z,102266.84
2023-04-20T07:15:12.217Z,102258.91
2023-04-20T07:17:39.429Z,102265.47
2023-04-20T07:20:10.524Z,102268.22
2023-04-20T07:22:38.972Z,102274.25
2023-04-20T07:25:09.808Z,102254.56
2023-04-20T07:27:39.117Z,102270.88
2023-04-20T07:30:07.770Z,102274.09
2023-04-20T07:32:35.397Z,102273.22
2023-04-20T07:35:02.636Z,102290.19
2023-04-20T07:37:30.137Z,102282.00
2023-04-20T07:39:56.866Z,102288.06
2023-04-20T07:42:23.897Z,102298.91
2023-04-20T07:44:51.043Z,102290.09
2023-04-20T07:47:18.158Z,102291.19
2023-04-20T07:49:45.231Z,102299.50
2023-04-20T07:52:16.909Z,102301.84
2023-04-20T07:54:47.688Z,102309.78
2023-04-20T07:57:15.355Z,102301.53
2023-04-20T07:59:42.508Z,102301.28
2023-04-20T08:02:09.602Z,102293.38
2023-04-20T08:04:38.455Z,102299.59
2023-04-20T08:07:05.606Z,102303.91
2023-04-20T08:09:32.416Z,102312.69
2023-04-20T08:11:59.449Z,102305.91
2023-04-20T08:14:28.612Z,102316.94
2023-04-20T08:16:55.692Z,102304.25
2023-04-20T08:19:27.815Z,102304.75
2023-04-20T08:21:55.039Z,102299.81
2023-04-20T08:24:21.975Z,102309.34
2023-04-20T08:26:49.691Z,102307.91
2023-04-20T08:29:16.684Z,102302.38
2023-04-20T08:31:43.557Z,102308.31
2023-04-20T08:34:11.936Z,102318.13
2023-04-20T08:36:38.864Z,102327.03
2023-04-20T08:39:12.494Z,102338.59
2023-04-20T08:41:39.500Z,102351.59
2023-04-20T08:44:08.047Z,102344.91
2023-04-20T08:46:35.473Z,102339.94
2023-04-20T08:49:03.843Z,102348.59
2023-04-20T08:51:32.904Z,102335.44
2023-04-20T08:54:06.922Z,102321.81
2023-04-20T08:56:38.798Z,102344.25
2023-04-20T08:59:09.640Z,102323.38
2023-04-20T09:01:37.952Z,102319.75
2023-04-20T09:04:20.259Z,102316.81
2023-04-20T09:06:52.051Z,102317.78
2023-04-20T09:09:20.196Z,102314.75
2023-04-20T09:11:47.487Z,102310.84
2023-04-20T09:14:16.963Z,102311.94
2023-04-20T09:17:00.943Z,102317.00
2023-04-20T09:19:32.791Z,102313.84
2023-04-20T09:22:06.920Z,102313.06
2023-04-20T09:24:35.513Z,102284.38
2023-04-20T09:27:14.487Z,102315.16
2023-04-20T09:29:41.631Z,102313.81
2023-04-20T09:32:09.061Z,102317.63
2023-04-20T09:34:45.882Z,102325.78
2023-04-20T09:37:16.808Z,102329.75
2023-04-20T09:39:45.996Z,102333.09
2023-04-20T09:42:15.083Z,102325.00
2023-04-20T09:44:42.832Z,102325.56
2023-04-20T09:47:21.780Z,102326.41
2023-04-20T09:49:48.638Z,102340.59
2023-04-20T09:52:19.036Z,102340.16
2023-04-20T09:54:46.516Z,102348.50
2023-04-20T09:57:15.048Z,102313.13
2023-04-20T09:59:47.816Z,102305.44
2023-04-20T10:02:15.362Z,102328.97
2023-04-20T10:04:59.021Z,102323.25
2023-04-20T10:07:26.908Z,102325.78
2023-04-20T10:10:08.690Z,102322.97
2023-04-20T10:12:48.225Z,102294.41
2023-04-20T10:15:15.285Z,102262.34
2023-04-20T10:17:42.151Z,102261.06
2023-04-20T10:20:41.394Z,102274.53
2023-04-20T10:23:12.621Z,102281.13
2023-04-20T10:25:39.632Z,102294.44
2023-04-20T10:28:10.735Z,102305.47
2023-04-20T10:30:50.085Z,102308.81
2023-04-20T10:33:18.174Z,102284.19
2023-04-20T10:35:56.355Z,102308.53
2023-04-20T10:38:36.532Z,102311.53
2023-04-20T10:41:10.198Z,102320.34
2023-04-20T10:43:39.314Z,102338.00
2023-04-20T10:46:20.296Z,102328.59
2023-04-20T10:49:01.738Z,102332.53
2023-04-20T10:51:29.017Z,102342.78
2023-04-20T10:54:15.404Z,102330.59
2023-04-20T10:56:54.317Z,102325.31
2023-04-20T10:59:23.591Z,102319.69
2023-04-20T11:01:51.804Z,102312.16
2023-04-20T11:04:22.071Z,102314.94
2023-04-20T11:06:49.057Z,102322.19
2023-04-20T11:09:28.583Z,102321.63
2023-04-20T11:12:09.694Z,102309.59
2023-04-20T11:14:39.179Z,102312.38
2023-04-20T11:17:06.842Z,102318.50
2023-04-20T11:19:36.253Z,102320.41
2023-04-20T11:22:05.615Z,102324.19
2023-04-20T11:24:34.575Z,102319.75
2023-04-20T11:27:03.175Z,102317.53
2023-04-20T11:29:37.037Z,102325.28
2023-04-20T11:32:09.741Z,102326.16
2023-04-20T11:34:38.818Z,102313.00
2023-04-20T11:37:10.654Z,102303.38
2023-04-20T11:39:38.396Z,102298.66
2023-04-20T11:42:05.990Z,102298.22
2023-04-20T11:44:33.304Z,102307.16
2023-04-20T11:47:01.383Z,102302.19
2023-04-20T11:49:29.404Z,102306.63
2023-04-20T11:51:56.262Z,102295.91
2023-04-20T11:54:26.642Z,102308.44
2023-04-20T11:56:54.229Z,102311.56
2023-04-20T11:59:21.823Z,102285.69
2023-04-20T12:01:48.678Z,102300.38
2023-04-20T12:04:16.460Z,102298.00
2023-04-20T12:06:44.142Z,102296.63
2023-04-20T12:09:11.222Z,102295.16
2023-04-20T12:11:38.241Z,102303.09
2023-04-20T12:14:05.407Z,102313.56
2023-04-20T12:16:32.610Z,102315.28
2023-04-20T12:18:59.698Z,102330.56
2023-04-20T12:21:27.556Z,102323.34
2023-04-20T12:23:54.468Z,102323.00
2023-04-20T12:26:25.277Z,102319.41
2023-04-20T12:28:58.779Z,102321.59
2023-04-20T12:31:26.642Z,102320.72
2023-04-20T12:33:53.880Z,102307.97
2023-04-20T12:36:21.010Z,102316.59
2023-04-20T12:38:47.855Z,102321.88
2023-04-20T12:41:15.595Z,102327.94
2023-04-20T12:43:42.695Z,102331.50
2023-04-20T12:46:09.786Z,102329.28
2023-04-20T12:48:36.820Z,102329.84
2023-04-20T12:51:03.782Z,102334.03
2023-04-20T12:53:30.935Z,102330.06
2023-04-20T12:56:01.289Z,102323.97
2023-04-20T12:58:28.662Z,102322.97
2023-04-20T13:00:55.779Z,102331.88
2023-04-20T13:03:22.808Z,102314.72
2023-04-20T13:05:49.930Z,102282.47
2023-04-20T13:08:17.460Z,102303.06
2023-04-20T13:10:44.683Z,102301.38
2023-04-20T13:13:11.869Z,102304.72
2023-04-20T13:15:39.620Z,102303.03
2023-04-20T13:18:07.290Z,102273.19
2023-04-20T13:20:34.265Z,102298.72
2023-04-20T13:23:02.063Z,102297.59
2023-04-20T13:25:32.933Z,102296.41
2023-04-20T13:28:01.287Z,102294.75
2023-04-20T13:30:28.565Z,102289.53
2023-04-20T13:32:55.850Z,102287.56
2023-04-20T13:35:24.133Z,102289.16
2023-04-20T13:37:51.157Z,102277.81
2023-04-20T13:40:17.983Z,102265.69
2023-04-20T13:42:44.967Z,102246.88
2023-04-20T13:45:12.510Z,102280.81
2023-04-20T13:47:40.661Z,102280.78
2023-04-20T13:50:08.969Z,102268.31
2023-04-20T13:52:36.474Z,102266.63
2023-04-20T13:55:04.219Z,102264.22
2023-04-20T13:57:34.103Z,102253.50
2023-04-20T14:00:01.951Z,102252.78
2023-04-20T14:02:29.556Z,102254.63
2023-04-20T14:04:56.950Z,102255.06
2023-04-20T14:07:23.935Z,102239.78
2023-04-20T14:09:52.923Z,102239.78
2023-04-20T14:12:19.998Z,102242.06
2023-04-20T14:14:46.901Z,102234.59
2023-04-20T14:17:14.372Z,102200.88
2023-04-20T14:19:41.269Z,102221.06
2023-04-20T14:22:08.322Z,102227.22
2023-04-20T14:24:35.217Z,102228.09
2023-04-20T14:27:02.222Z,102216.69
2023-04-20T14:29:29.031Z,102226.75
2023-04-20T14:31:56.041Z,102223.56
2023-04-20T14:34:22.887Z,102232.69
2023-04-20T14:36:49.819Z,102234.44
2023-04-20T14:39:19.961Z,102233.53
2023-04-20T14:41:47.480Z,102224.47
2023-04-20T14:44:14.448Z,102222.00
2023-04-20T14:46:42.540Z,102217.06
2023-04-20T14:49:10.386Z,102186.41
2023-04-20T14:51:37.349Z,102196.84
2023-04-20T14:54:04.336Z,102207.91
2023-04-20T14:56:31.438Z,102195.97
2023-04-20T14:58:59.852Z,102194.16
2023-04-20T15:01:27.878Z,102186.53
2023-04-20T15:03:55.348Z,102182.53
2023-04-20T15:06:22.606Z,102169.06
2023-04-20T15:08:49.629Z,102167.47
2023-04-20T15:11:16.513Z,102158.00
2023-04-20T15:13:43.930Z,102160.81
2023-04-20T15:16:13.409Z,102164.44
2023-04-20T15:18:40.305Z,102160.31
2023-04-20T15:21:08.634Z,102153.44
2023-04-20T15:23:35.726Z,102122.84
2023-04-20T15:26:03.054Z,102145.56
2023-04-20T15:28:30.056Z,102145.13
2023-04-20T15:30:56.867Z,102136.69
2023-04-20T15:33:23.828Z,102132.69
2023-04-20T15:35:50.651Z,102118.63
2023-04-20T15:38:18.187Z,102125.88
2023-04-20T15:40:45.160Z,102107.06
2023-04-20T15:43:11.930Z,102122.22
2023-04-20T15:45:38.815Z,102115.28
2023-04-20T15:48:06.497Z,102115.91
2023-04-20T15:50:33.344Z,102119.19
2023-04-20T15:53:00.209Z,102116.88
2023-04-20T15:55:27.462Z,102110.75
2023-04-20T15:58:00.606Z,102097.69
2023-04-20T16:00:27.795Z,102105.41
2023-04-20T16:02:55.032Z,102100.16
2023-04-20T16:05:22.553Z,102092.34
2023-04-20T16:07:51.631Z,102091.22
2023-04-20T16:10:18.649Z,102083.75
2023-04-20T16:12:45.817Z,102095.56
2023-04-20T16:15:12.892Z,102095.25
2023-04-20T16:17:39.755Z,102104.72
2023-04-20T16:20:07.417Z,102098.78
2023-04-20T16:22:34.281Z,102104.78
2023-04-20T16:25:01.082Z,102095.63
2023-04-20T16:27:28.052Z,102092.75
2023-04-20T16:29:55.049Z,102095.66
2023-04-20T16:32:22.279Z,102099.75
2023-04-20T16:34:49.501Z,102099.84
2023-04-20T16:37:16.593Z,102098.91
2023-04-20T16:39:43.776Z,102100.63
2023-04-20T16:42:10.652Z,102102.94
2023-04-20T16:44:38.598Z,102101.59
2023-04-20T16:47:07.464Z,102106.38
2023-04-20T16:49:37.571Z,102101.25
2023-04-20T16:52:04.524Z,102109.88
2023-04-20T16:54:31.380Z,102111.66
2023-04-20T16:57:01.680Z,102115.16
2023-04-20T16:59:28.603Z,102121.75
2023-04-20T17:01:55.554Z,102117.97
2023-04-20T17:04:23.062Z,102124.06
2023-04-20T17:06:50.506Z,102105.94
2023-04-20T17:09:17.626Z,102117.59
2023-04-20T17:11:44.584Z,102108.59
2023-04-20T17:14:11.662Z,102101.84
2023-04-20T17:16:38.533Z,102109.72
2023-04-20T17:19:05.555Z,102113.94
2023-04-20T17:21:32.589Z,102102.38
2023-04-20T17:23:59.794Z,102075.41
2023-04-20T17:26:29.384Z,102091.75
2023-04-20T17:28:56.515Z,102071.34
2023-04-20T17:31:23.591Z,102051.47
2023-04-20T17:33:50.796Z,102075.31
2023-04-20T17:36:17.843Z,102075.78
2023-04-20T17:38:44.590Z,102077.28
2023-04-20T17:41:11.652Z,102051.91
2023-04-20T17:43:40.612Z,102074.03
2023-04-20T17:46:08.379Z,102082.47
2023-04-20T17:48:35.482Z,102084.53
2023-04-20T17:51:02.405Z,102084.13
2023-04-20T17:53:29.309Z,102082.31
2023-04-20T17:55:56.321Z,102088.06
2023-04-20T17:58:25.140Z,102098.16
2023-04-20T18:00:52.134Z,102073.78
2023-04-20T18:03:20.207Z,102104.69
2023-04-20T18:05:47.623Z,102107.88
2023-04-20T18:08:15.814Z,102101.25
2023-04-20T18:10:42.838Z,102102.38
2023-04-20T18:13:09.987Z,102105.50
2023-04-20T18:15:36.894Z,102112.50
2023-04-20T18:18:04.385Z,102110.03
2023-04-20T18:20:32.576Z,102115.34
2023-04-20T18:22:59.596Z,102115.28
2023-04-20T18:25:26.731Z,102128.13
2023-04-20T18:27:56.694Z,102110.94
2023-04-20T18:30:23.960Z,102080.44
2023-04-20T18:32:51.276Z,102090.16
2023-04-20T18:35:19.528Z,102103.44
2023-04-20T18:37:46.585Z,102116.28
2023-04-20T18:40:15.497Z,102119.59
2023-04-20T18:42:43.454Z,102115.16
2023-04-20T18:45:12.463Z,102125.13
2023-04-20T18:47:39.950Z,102114.31
2023-04-20T18:50:07.371Z,102104.63
2023-04-20T18:52:34.535Z,102117.38
2023-04-20T18:55:01.685Z,102132.94
2023-04-20T18:57:29.284Z,102120.75
2023-04-20T18:59:56.702Z,102119.34
2023-04-20T19:02:24.281Z,102126.56
2023-04-20T19:04:51.384Z,102123.78
2023-04-20T19:07:18.940Z,102123.22
2023-04-20T19:09:45.918Z,102121.25
2023-04-20T19:12:12.950Z,102117.94
2023-04-20T19:14:40.164Z,102106.00
2023-04-20T19:17:07.682Z,102101.28
2023-04-20T19:19:34.754Z,102124.88
2023-04-20T19:22:03.630Z,102122.66
2023-04-20T19:24:32.237Z,102126.56
2023-04-20T19:26:59.408Z,102126.00
2023-04-20T19:29:26.512Z,102129.88
2023-04-20T19:31:53.543Z,102132.41
2023-04-20T19:34:21.498Z,102131.00
2023-04-20T19:36:48.943Z,102127.38
2023-04-20T19:39:16.118Z,102132.09
2023-04-20T19:41:43.075Z,102129.34
2023-04-20T19:44:10.620Z,102137.09
2023-04-20T19:46:38.887Z,102133.75
2023-04-20T19:49:06.563Z,102146.00
2023-04-20T19:51:33.789Z,102132.94
2023-04-20T19:54:02.307Z,102132.34
2023-04-20T19:56:29.238Z,102161.22
2023-04-20T19:58:55.985Z,102134.28
2023-04-20T20:01:23.044Z,102154.28
2023-04-20T20:03:50.325Z,102150.09
2023-04-20T20:06:17.586Z,102155.09
2023-04-20T20:08:44.584Z,102163.69
2023-04-20T20:11:11.785Z,102167.56
2023-04-20T20:13:38.588Z,102155.91
2023-04-20T20:16:05.730Z,102147.00
2023-04-20T20:18:32.732Z,102165.06
2023-04-20T20:20:59.465Z,102162.56
2023-04-20T20:23:26.474Z,102168.94
2023-04-20T20:25:53.380Z,102163.09
2023-04-20T20:28:20.700Z,102159.75
2023-04-20T20:30:47.573Z,102161.16
2023-04-20T20:33:15.027Z,102165.28
2023-04-20T20:35:43.187Z,102165.56
2023-04-20T20:38:11.257Z,102169.44
2023-04-20T20:40:39.995Z,102151.13
2023-04-20T20:43:07.049Z,102175.22
2023-04-20T20:45:33.979Z,102165.78
2023-04-20T20:48:01.250Z,102162.19
2023-04-20T20:50:28.543Z,102165.78
2023-04-20T20:52:55.660Z,102164.69
2023-04-20T20:55:22.776Z,102171.88
2023-04-20T20:57:49.692Z,102169.63
2023-04-20T21:00:16.589Z,102162.19
2023-04-20T21:02:43.723Z,102158.25
2023-04-20T21:05:11.000Z,102166.38
2023-04-20T21:07:38.208Z,102166.34
2023-04-20T21:10:07.278Z,102163.84
2023-04-20T21:12:34.157Z,102162.19
2023-04-20T21:15:01.378Z,102162.44
2023-04-20T21:17:28.474Z,102165.50
2023-04-20T21:19:55.560Z,102169.63
2023-04-20T21:22:22.771Z,102167.94
2023-04-20T21:24:51.105Z,102174.00
2023-04-20T21:27:18.005Z,102177.28
2023-04-20T21:29:44.844Z,102170.38
2023-04-20T21:32:11.948Z,102177.00
2023-04-20T21:34:38.957Z,102167.00
2023-04-20T21:37:07.341Z,102172.00
2023-04-20T21:39:34.337Z,102169.19
2023-04-20T21:42:01.711Z,102164.78
2023-04-20T21:44:28.745Z,102166.94
2023-04-20T21:46:55.818Z,102168.63
2023-04-20T21:49:22.890Z,102170.00
2023-04-20T21:51:50.067Z,102160.41
2023-04-20T21:54:17.225Z,102165.44
2023-04-20T21:56:44.226Z,102162.91
2023-04-20T21:59:11.315Z,102162.06
2023-04-20T22:01:38.527Z,102165.75
2023-04-20T22:04:06.058Z,102162.41
2023-04-20T22:06:36.488Z,102156.88
2023-04-20T22:09:04.771Z,102160.50
2023-04-20T22:11:36.665Z,102158.31
2023-04-20T22:14:04.766Z,102172.19
2023-04-20T22:16:34.208Z,102172.75
2023-04-20T22:19:01.565Z,102168.28
2023-04-20T22:21:28.993Z,102159.69
2023-04-20T22:23:55.915Z,102155.19
2023-04-20T22:26:23.044Z,102163.00
2023-04-20T22:28:50.137Z,102154.97
2023-04-20T22:31:17.846Z,102160.47
2023-04-20T22:33:44.921Z,102109.00
2023-04-20T22:36:12.090Z,102167.88
2023-04-20T22:38:39.012Z,102159.47
2023-04-20T22:41:08.481Z,102160.56
2023-04-20T22:43:35.592Z,102158.03
2023-04-20T22:46:02.483Z,102166.84
2023-04-20T22:48:29.465Z,102165.19
2023-04-20T22:51:00.866Z,102159.09
2023-04-20T22:53:30.385Z,102159.09
2023-04-20T22:56:07.387Z,102171.97
2023-04-20T22:58:35.150Z,102170.31
2023-04-20T23:01:03.806Z,102159.50
2023-04-20T23:03:31.417Z,102159.28
2023-04-20T23:05:59.359Z,102155.31
2023-04-20T23:08:26.452Z,102163.53
2023-04-20T23:10:56.476Z,102159.72
2023-04-20T23:13:26.661Z,102159.31
2023-04-20T23:15:53.912Z,102137.94
2023-04-20T23:18:21.923Z,102166.78
2023-04-20T23:20:48.845Z,102160.41
2023-04-20T23:23:15.774Z,102154.53
2023-04-20T23:25:42.713Z,102164.25
2023-04-20T23:28:10.062Z,102160.28
2023-04-20T23:30:36.963Z,102150.84
2023-04-20T23:33:03.947Z,102147.69
2023-04-20T23:35:31.215Z,102158.06
2023-04-20T23:37:58.389Z,102149.53
2023-04-20T23:40:26.785Z,102151.97
2023-04-20T23:42:56.153Z,102151.41
2023-04-20T23:45:23.545Z,102156.94
2023-04-20T23:47:50.510Z,102150.25
2023-04-20T23:50:17.768Z,102144.97
2023-04-20T23:52:44.691Z,102146.63
2023-04-20T23:55:11.866Z,102139.06
2023-04-20T23:57:38.889Z,102141.84
